sensor_id;sensor_type;location;lat;lon;timestamp;pressure;altitude;pressure_sealevel;temperature;humidity
50684;BME280;36654;45.042;38.994;2023-01-30T00:00:14;100888.03;;;5.84;87.28
50684;BME280;36654;45.042;38.994;2023-01-30T00:02:40;100904.78;;;5.87;87.40
50684;BME280;36654;45.042;38.994;2023-01-30T00:05:05;100915.41;;;5.90;87.96
50684;BME280;36654;45.042;38.994;2023-01-30T00:07:31;100885.09;;;5.75;87.95
50684;BME280;36654;45.042;38.994;2023-01-30T00:09:56;100917.28;;;5.94;88.25
50684;BME280;36654;45.042;38.994;2023-01-30T00:12:23;100927.09;;;5.98;88.58
50684;BME280;36654;45.042;38.994;2023-01-30T00:14:48;100933.22;;;5.97;88.85
50684;BME280;36654;45.042;38.994;2023-01-30T00:17:14;100915.19;;;5.83;89.03
50684;BME280;36654;45.042;38.994;2023-01-30T00:19:39;100940.97;;;5.94;89.41
50684;BME280;36654;45.042;38.994;2023-01-30T00:22:05;100954.25;;;5.97;89.89
50684;BME280;36654;45.042;38.994;2023-01-30T00:24:30;100945.50;;;5.98;90.48
50684;BME280;36654;45.042;38.994;2023-01-30T00:26:56;100946.41;;;5.98;90.69
50684;BME280;36654;45.042;38.994;2023-01-30T00:29:22;100950.78;;;5.98;90.93
50684;BME280;36654;45.042;38.994;2023-01-30T00:31:47;100946.66;;;6.06;90.87
50684;BME280;36654;45.042;38.994;2023-01-30T00:34:13;100943.91;;;6.03;91.28
50684;BME280;36654;45.042;38.994;2023-01-30T00:36:38;100957.41;;;6.12;91.09
50684;BME280;36654;45.042;38.994;2023-01-30T00:39:04;100933.69;;;6.12;91.12
50684;BME280;36654;45.042;38.994;2023-01-30T00:41:29;100948.84;;;6.19;91.19
50684;BME280;36654;45.042;38.994;2023-01-30T00:44:15;100961.22;;;6.22;91.23
50684;BME280;36654;45.042;38.994;2023-01-30T00:46:59;100955.00;;;6.20;91.23
50684;BME280;36654;45.042;38.994;2023-01-30T00:49:31;100949.59;;;6.15;91.05
50684;BME280;36654;45.042;38.994;2023-01-30T00:51:57;100955.16;;;6.24;90.99
50684;BME280;36654;45.042;38.994;2023-01-30T00:54:23;100948.09;;;6.23;90.90
50684;BME280;36654;45.042;38.994;2023-01-30T00:56:48;100901.72;;;6.00;90.82
50684;BME280;36654;45.042;38.994;2023-01-30T00:59:14;100949.94;;;6.26;90.59
50684;BME280;36654;45.042;38.994;2023-01-30T01:01:40;100956.13;;;6.28;90.67
50684;BME280;36654;45.042;38.994;2023-01-30T01:04:06;100905.94;;;5.95;90.48
50684;BME280;36654;45.042;38.994;2023-01-30T01:06:33;100956.13;;;6.26;90.39
50684;BME280;36654;45.042;38.994;2023-01-30T01:08:59;100952.63;;;6.28;90.02
50684;BME280;36654;45.042;38.994;2023-01-30T01:11:24;100972.72;;;6.25;89.86
50684;BME280;36654;45.042;38.994;2023-01-30T01:13:51;100968.31;;;6.24;89.88
50684;BME280;36654;45.042;38.994;2023-01-30T01:16:17;100972.72;;;6.25;89.74
50684;BME280;36654;45.042;38.994;2023-01-30T01:18:43;100976.22;;;6.24;89.84
50684;BME280;36654;45.042;38.994;2023-01-30T01:21:08;100977.19;;;6.28;89.71
50684;BME280;36654;45.042;38.994;2023-01-30T01:23:34;100981.59;;;6.28;89.51
50684;BME280;36654;45.042;38.994;2023-01-30T01:26:03;100973.59;;;6.24;89.12
50684;BME280;36654;45.042;38.994;2023-01-30T01:28:29;100975.31;;;6.24;88.83
50684;BME280;36654;45.042;38.994;2023-01-30T01:30:55;100963.78;;;6.20;88.52
50684;BME280;36654;45.042;38.994;2023-01-30T01:33:25;100981.38;;;6.21;88.22
50684;BME280;36654;45.042;38.994;2023-01-30T01:35:55;100976.88;;;6.17;88.04
50684;BME280;36654;45.042;38.994;2023-01-30T01:38:20;100940.16;;;5.95;87.30
50684;BME280;36654;45.042;38.994;2023-01-30T01:40:46;100950.84;;;5.99;87.05
50684;BME280;36654;45.042;38.994;2023-01-30T01:43:30;100976.56;;;6.08;86.57
50684;BME280;36654;45.042;38.994;2023-01-30T01:46:17;100979.09;;;6.05;86.63
50684;BME280;36654;45.042;38.994;2023-01-30T01:48:48;100994.03;;;6.06;86.32
50684;BME280;36654;45.042;38.994;2023-01-30T01:51:39;100985.19;;;6.04;86.31
50684;BME280;36654;45.042;38.994;2023-01-30T01:54:14;100957.06;;;5.77;86.10
50684;BME280;36654;45.042;38.994;2023-01-30T01:56:43;100989.53;;;6.02;86.27
50684;BME280;36654;45.042;38.994;2023-01-30T01:59:27;100995.69;;;6.02;86.61
50684;BME280;36654;45.042;38.994;2023-01-30T02:01:57;100987.63;;;5.98;86.94
50684;BME280;36654;45.042;38.994;2023-01-30T02:04:26;100996.47;;;6.00;87.12
50684;BME280;36654;45.042;38.994;2023-01-30T02:07:11;100998.25;;;6.01;87.40
50684;BME280;36654;45.042;38.994;2023-01-30T02:09:36;101008.69;;;5.98;87.63
50684;BME280;36654;45.042;38.994;2023-01-30T02:12:03;101010.44;;;5.99;87.58
50684;BME280;36654;45.042;38.994;2023-01-30T02:14:32;100971.19;;;5.79;87.67
50684;BME280;36654;45.042;38.994;2023-01-30T02:16:57;101020.75;;;5.93;87.41
50684;BME280;36654;45.042;38.994;2023-01-30T02:19:44;101013.84;;;5.95;87.38
50684;BME280;36654;45.042;38.994;2023-01-30T02:42:18;101026.81;;;5.90;87.14
50684;BME280;36654;45.042;38.994;2023-01-30T02:47:38;101024.38;;;5.95;87.20
50684;BME280;36654;45.042;38.994;2023-01-30T02:52:38;101026.88;;;5.92;86.83
50684;BME280;36654;45.042;38.994;2023-01-30T02:55:09;101032.28;;;5.96;86.74
50684;BME280;36654;45.042;38.994;2023-01-30T02:57:41;101019.84;;;5.92;86.61
50684;BME280;36654;45.042;38.994;2023-01-30T03:00:08;100992.94;;;5.75;86.49
50684;BME280;36654;45.042;38.994;2023-01-30T03:03:05;101029.72;;;5.98;86.30
50684;BME280;36654;45.042;38.994;2023-01-30T03:08:24;101015.59;;;5.94;85.98
50684;BME280;36654;45.042;38.994;2023-01-30T03:10:59;101017.41;;;5.97;85.68
50684;BME280;36654;45.042;38.994;2023-01-30T03:16:37;101013.84;;;5.95;85.34
50684;BME280;36654;45.042;38.994;2023-01-30T03:19:04;100995.91;;;5.84;85.31
50684;BME280;36654;45.042;38.994;2023-01-30T03:21:33;101019.09;;;5.95;85.31
50684;BME280;36654;45.042;38.994;2023-01-30T03:23:58;101018.25;;;5.96;85.10
50684;BME280;36654;45.042;38.994;2023-01-30T03:26:29;101017.41;;;5.97;85.26
50684;BME280;36654;45.042;38.994;2023-01-30T03:28:57;101028.06;;;6.00;84.99
50684;BME280;36654;45.042;38.994;2023-01-30T03:31:23;101028.16;;;6.03;84.77
50684;BME280;36654;45.042;38.994;2023-01-30T03:33:49;101014.88;;;6.00;84.63
50684;BME280;36654;45.042;38.994;2023-01-30T03:36:15;101014.13;;;6.04;84.66
50684;BME280;36654;45.042;38.994;2023-01-30T03:38:40;100999.59;;;5.90;84.57
50684;BME280;36654;45.042;38.994;2023-01-30T03:41:06;101014.91;;;6.01;84.31
50684;BME280;36654;45.042;38.994;2023-01-30T03:43:31;101025.56;;;6.04;83.98
50684;BME280;36654;45.042;38.994;2023-01-30T03:45:57;101030.84;;;6.04;84.13
50684;BME280;36654;45.042;38.994;2023-01-30T03:48:23;101031.72;;;6.05;83.96
50684;BME280;36654;45.042;38.994;2023-01-30T03:50:48;101009.34;;;5.92;83.78
50684;BME280;36654;45.042;38.994;2023-01-30T03:53:14;101028.06;;;6.00;83.75
50684;BME280;36654;45.042;38.994;2023-01-30T03:55:39;101029.81;;;6.01;83.64
50684;BME280;36654;45.042;38.994;2023-01-30T03:58:05;101043.06;;;6.02;83.59
50684;BME280;36654;45.042;38.994;2023-01-30T04:00:31;101043.75;;;5.97;83.74
50684;BME280;36654;45.042;38.994;2023-01-30T04:02:57;101049.09;;;6.00;83.57
50684;BME280;36654;45.042;38.994;2023-01-30T04:05:23;101045.28;;;5.92;83.53
50684;BME280;36654;45.042;38.994;2023-01-30T04:07:50;101048.81;;;5.92;83.65
50684;BME280;36654;45.042;38.994;2023-01-30T04:10:16;101058.28;;;5.87;83.69
50684;BME280;36654;45.042;38.994;2023-01-30T04:12:45;101053.91;;;5.88;83.92
50684;BME280;36654;45.042;38.994;2023-01-30T04:15:10;101052.13;;;5.87;83.81
50684;BME280;36654;45.042;38.994;2023-01-30T04:17:36;101061.72;;;5.86;83.88
50684;BME280;36654;45.042;38.994;2023-01-30T04:20:02;101055.56;;;5.86;84.07
50684;BME280;36654;45.042;38.994;2023-01-30T04:22:28;101052.78;;;5.81;84.12
50684;BME280;36654;45.042;38.994;2023-01-30T04:24:54;101052.59;;;5.76;84.30
50684;BME280;36654;45.042;38.994;2023-01-30T04:27:19;101062.31;;;5.77;84.09
50684;BME280;36654;45.042;38.994;2023-01-30T04:29:45;101071.03;;;5.76;84.21
50684;BME280;36654;45.042;38.994;2023-01-30T04:32:10;101056.03;;;5.74;84.27
50684;BME280;36654;45.042;38.994;2023-01-30T04:34:36;101066.50;;;5.72;84.70
50684;BME280;36654;45.042;38.994;2023-01-30T04:37:01;101069.94;;;5.70;84.57
50684;BME280;36654;45.042;38.994;2023-01-30T04:39:27;101062.84;;;5.69;84.73
50684;BME280;36654;45.042;38.994;2023-01-30T04:41:53;101074.16;;;5.66;84.72
50684;BME280;36654;45.042;38.994;2023-01-30T04:44:18;101061.75;;;5.62;84.90
50684;BME280;36654;45.042;38.994;2023-01-30T04:46:44;101066.00;;;5.58;85.11
50684;BME280;36654;45.042;38.994;2023-01-30T04:49:10;101065.31;;;5.64;85.19
50684;BME280;36654;45.042;38.994;2023-01-30T04:51:35;101067.13;;;5.65;85.11
50684;BME280;36654;45.042;38.994;2023-01-30T04:54:01;101068.03;;;5.66;85.17
50684;BME280;36654;45.042;38.994;2023-01-30T04:56:27;101084.69;;;5.66;85.13
50684;BME280;36654;45.042;38.994;2023-01-30T04:58:52;101086.50;;;5.67;85.22
50684;BME280;36654;45.042;38.994;2023-01-30T05:01:30;101074.22;;;5.68;84.94
50684;BME280;36654;45.042;38.994;2023-01-30T05:03:55;101076.94;;;5.69;84.75
50684;BME280;36654;45.042;38.994;2023-01-30T05:06:22;101087.38;;;5.68;84.88
50684;BME280;36654;45.042;38.994;2023-01-30T05:08:52;101038.38;;;5.46;84.75
50684;BME280;36654;45.042;38.994;2023-01-30T05:11:19;101080.50;;;5.71;84.48
50684;BME280;36654;45.042;38.994;2023-01-30T05:13:45;101082.34;;;5.74;84.38
50684;BME280;36654;45.042;38.994;2023-01-30T05:16:12;101094.69;;;5.76;84.12
50684;BME280;36654;45.042;38.994;2023-01-30T05:18:37;101091.28;;;5.79;83.82
50684;BME280;36654;45.042;38.994;2023-01-30T05:21:10;101095.75;;;5.81;83.71
50684;BME280;36654;45.042;38.994;2023-01-30T05:23:36;101099.34;;;5.83;83.29
50684;BME280;36654;45.042;38.994;2023-01-30T05:26:02;101096.00;;;5.88;83.24
50684;BME280;36654;45.042;38.994;2023-01-30T05:28:28;101099.69;;;5.93;82.98
50684;BME280;36654;45.042;38.994;2023-01-30T05:31:00;101097.16;;;5.94;82.81
50684;BME280;36654;45.042;38.994;2023-01-30T05:33:26;101099.94;;;5.99;82.53
50684;BME280;36654;45.042;38.994;2023-01-30T05:35:51;101105.31;;;6.02;82.12
50684;BME280;36654;45.042;38.994;2023-01-30T05:38:17;101101.94;;;6.06;81.93
50684;BME280;36654;45.042;38.994;2023-01-30T05:40:42;101111.81;;;6.12;81.65
50684;BME280;36654;45.042;38.994;2023-01-30T05:43:08;101105.63;;;6.11;81.12
50684;BME280;36654;45.042;38.994;2023-01-30T05:45:35;101106.59;;;6.13;80.86
50684;BME280;36654;45.042;38.994;2023-01-30T05:48:01;101103.13;;;6.14;80.50
50684;BME280;36654;45.042;38.994;2023-01-30T05:50:27;101107.63;;;6.18;80.03
50684;BME280;36654;45.042;38.994;2023-01-30T05:52:53;101111.13;;;6.17;79.96
50684;BME280;36654;45.042;38.994;2023-01-30T05:55:18;101098.78;;;6.16;79.68
50684;BME280;36654;45.042;38.994;2023-01-30T05:57:44;101104.19;;;6.19;79.63
50684;BME280;36654;45.042;38.994;2023-01-30T06:00:10;101100.78;;;6.23;79.33
50684;BME280;36654;45.042;38.994;2023-01-30T06:02:36;101095.66;;;6.26;79.21
50684;BME280;36654;45.042;38.994;2023-01-30T06:05:02;101094.88;;;6.29;79.10
50684;BME280;36654;45.042;38.994;2023-01-30T06:07:28;101091.22;;;6.25;78.87
50684;BME280;36654;45.042;38.994;2023-01-30T06:09:53;101092.25;;;6.31;78.69
50684;BME280;36654;45.042;38.994;2023-01-30T06:12:19;101094.06;;;6.32;78.53
50684;BME280;36654;45.042;38.994;2023-01-30T06:14:44;101098.47;;;6.33;78.55
50684;BME280;36654;45.042;38.994;2023-01-30T06:17:10;101088.91;;;6.35;78.06
50684;BME280;36654;45.042;38.994;2023-01-30T06:19:35;101077.34;;;6.31;77.88
50684;BME280;36654;45.042;38.994;2023-01-30T06:22:01;101095.22;;;6.40;77.67
50684;BME280;36654;45.042;38.994;2023-01-30T06:24:27;101095.31;;;6.43;77.20
50684;BME280;36654;45.042;38.994;2023-01-30T06:26:53;101085.50;;;6.39;77.04
50684;BME280;36654;45.042;38.994;2023-01-30T06:29:18;101088.47;;;6.48;77.03
50684;BME280;36654;45.042;38.994;2023-01-30T06:31:44;101096.63;;;6.56;76.76
50684;BME280;36654;45.042;38.994;2023-01-30T06:34:10;101090.47;;;6.55;76.53
50684;BME280;36654;45.042;38.994;2023-01-30T06:36:36;101088.00;;;6.61;76.38
50684;BME280;36654;45.042;38.994;2023-01-30T06:39:02;101097.91;;;6.68;76.07
50684;BME280;36654;45.042;38.994;2023-01-30T06:41:30;101092.78;;;6.73;75.67
50684;BME280;36654;45.042;38.994;2023-01-30T06:43:56;101102.53;;;6.76;75.51
50684;BME280;36654;45.042;38.994;2023-01-30T06:46:21;101088.63;;;6.80;75.30
50684;BME280;36654;45.042;38.994;2023-01-30T06:48:47;101092.22;;;6.82;75.15
50684;BME280;36654;45.042;38.994;2023-01-30T06:51:12;101088.63;;;6.80;75.02
50684;BME280;36654;45.042;38.994;2023-01-30T06:53:38;101078.28;;;6.86;74.80
50684;BME280;36654;45.042;38.994;2023-01-30T06:56:04;101091.50;;;6.87;74.60
50684;BME280;36654;45.042;38.994;2023-01-30T06:58:29;101071.06;;;6.80;74.49
50684;BME280;36654;45.042;38.994;2023-01-30T07:00:55;101097.75;;;6.91;74.47
50684;BME280;36654;45.042;38.994;2023-01-30T07:03:21;101089.97;;;6.94;74.46
50684;BME280;36654;45.042;38.994;2023-01-30T07:05:47;101082.81;;;6.90;74.50
50684;BME280;36654;45.042;38.994;2023-01-30T07:08:14;101058.03;;;6.85;74.18
50684;BME280;36654;45.042;38.994;2023-01-30T07:10:40;101095.41;;;7.00;74.15
50684;BME280;36654;45.042;38.994;2023-01-30T07:13:06;101085.81;;;7.02;74.09
50684;BME280;36654;45.042;38.994;2023-01-30T07:15:32;101075.19;;;6.99;74.10
50684;BME280;36654;45.042;38.994;2023-01-30T07:17:58;101086.00;;;7.08;73.96
50684;BME280;36654;45.042;38.994;2023-01-30T07:20:24;101085.31;;;7.14;74.03
50684;BME280;36654;45.042;38.994;2023-01-30T07:22:54;101095.31;;;7.26;73.58
50684;BME280;36654;45.042;38.994;2023-01-30T07:25:22;101096.56;;;7.37;73.31
50684;BME280;36654;45.042;38.994;2023-01-30T07:27:52;101093.34;;;7.47;72.83
50684;BME280;36654;45.042;38.994;2023-01-30T07:30:18;101092.03;;;7.63;72.51
50684;BME280;36654;45.042;38.994;2023-01-30T07:32:48;101092.25;;;7.71;72.08
50684;BME280;36654;45.042;38.994;2023-01-30T07:35:14;101091.56;;;7.78;71.85
50684;BME280;36654;45.042;38.994;2023-01-30T07:37:39;101083.53;;;7.73;71.54
50684;BME280;36654;45.042;38.994;2023-01-30T07:40:05;101075.66;;;7.75;71.23
50684;BME280;36654;45.042;38.994;2023-01-30T07:42:31;101042.31;;;7.47;71.11
50684;BME280;36654;45.042;38.994;2023-01-30T07:44:57;101089.78;;;7.77;70.70
50684;BME280;36654;45.042;38.994;2023-01-30T07:47:22;101090.47;;;7.70;70.47
50684;BME280;36654;45.042;38.994;2023-01-30T07:49:48;101088.69;;;7.69;70.68
50684;BME280;36654;45.042;38.994;2023-01-30T07:52:13;101091.22;;;7.66;70.58
50684;BME280;36654;45.042;38.994;2023-01-30T07:54:39;101077.94;;;7.63;70.80
50684;BME280;36654;45.042;38.994;2023-01-30T07:57:04;101091.28;;;7.67;70.63
50684;BME280;36654;45.042;38.994;2023-01-30T07:59:30;101063.06;;;7.65;70.58
50684;BME280;36654;45.042;38.994;2023-01-30T08:01:56;101062.97;;;7.62;70.59
50684;BME280;36654;45.042;38.994;2023-01-30T08:04:23;101077.34;;;7.73;69.68
50684;BME280;36654;45.042;38.994;2023-01-30T08:06:48;101060.56;;;7.69;69.65
50684;BME280;36654;45.042;38.994;2023-01-30T08:09:14;101027.72;;;7.60;69.92
50684;BME280;36654;45.042;38.994;2023-01-30T08:11:39;101059.91;;;7.78;69.59
50684;BME280;36654;45.042;38.994;2023-01-30T08:14:05;101076.13;;;7.92;69.41
50684;BME280;36654;45.042;38.994;2023-01-30T08:16:31;101008.47;;;7.64;69.53
50684;BME280;36654;45.042;38.994;2023-01-30T08:18:58;101065.09;;;8.07;69.32
50684;BME280;36654;45.042;38.994;2023-01-30T08:21:24;101058.88;;;8.06;69.12
50684;BME280;36654;45.042;38.994;2023-01-30T08:23:49;101065.78;;;7.99;68.98
50684;BME280;36654;45.042;38.994;2023-01-30T08:26:15;101073.63;;;7.96;68.95
50684;BME280;36654;45.042;38.994;2023-01-30T08:28:41;101062.13;;;7.94;68.77
50684;BME280;36654;45.042;38.994;2023-01-30T08:31:11;101064.69;;;7.93;68.89
50684;BME280;36654;45.042;38.994;2023-01-30T08:33:37;101062.03;;;7.91;68.93
50684;BME280;36654;45.042;38.994;2023-01-30T08:36:03;101016.63;;;7.71;68.77
50684;BME280;36654;45.042;38.994;2023-01-30T08:38:28;101026.19;;;7.68;68.42
50684;BME280;36654;45.042;38.994;2023-01-30T08:40:54;101053.81;;;7.81;68.14
50684;BME280;36654;45.042;38.994;2023-01-30T08:43:22;101048.50;;;7.79;68.53
50684;BME280;36654;45.042;38.994;2023-01-30T08:45:48;101009.41;;;7.64;68.37
50684;BME280;36654;45.042;38.994;2023-01-30T08:48:14;101042.56;;;7.86;68.49
50684;BME280;36654;45.042;38.994;2023-01-30T08:50:39;101041.69;;;7.87;68.47
50684;BME280;36654;45.042;38.994;2023-01-30T08:53:07;101047.16;;;7.95;68.35
50684;BME280;36654;45.042;38.994;2023-01-30T08:55:33;101035.94;;;8.04;68.48
50684;BME280;36654;45.042;38.994;2023-01-30T08:57:59;101015.00;;;8.10;68.31
50684;BME280;36654;45.042;38.994;2023-01-30T09:00:26;101020.59;;;8.22;68.03
50684;BME280;36654;45.042;38.994;2023-01-30T09:02:53;100983.44;;;8.16;67.80
50684;BME280;36654;45.042;38.994;2023-01-30T09:05:18;100997.81;;;8.27;67.73
50684;BME280;36654;45.042;38.994;2023-01-30T09:07:44;100996.53;;;8.45;66.82
50684;BME280;36654;45.042;38.994;2023-01-30T09:10:10;100956.19;;;8.52;65.61
50684;BME280;36654;45.042;38.994;2023-01-30T09:12:35;100969.66;;;8.64;64.93
50684;BME280;36654;45.042;38.994;2023-01-30T09:15:01;100986.88;;;8.84;64.54
50684;BME280;36654;45.042;38.994;2023-01-30T09:17:26;101001.75;;;8.81;64.13
50684;BME280;36654;45.042;38.994;2023-01-30T09:19:52;100984.66;;;8.65;64.24
50684;BME280;36654;45.042;38.994;2023-01-30T09:22:18;100996.88;;;8.60;64.76
50684;BME280;36654;45.042;38.994;2023-01-30T09:24:43;100978.13;;;8.49;64.28
50684;BME280;36654;45.042;38.994;2023-01-30T09:27:09;100943.28;;;8.29;64.46
50684;BME280;36654;45.042;38.994;2023-01-30T09:29:35;100953.75;;;8.26;64.73
50684;BME280;36654;45.042;38.994;2023-01-30T09:32:00;100972.84;;;8.49;64.39
50684;BME280;36654;45.042;38.994;2023-01-30T09:34:26;100964.88;;;8.48;64.41
50684;BME280;36654;45.042;38.994;2023-01-30T09:36:56;100974.09;;;8.65;64.24
50684;BME280;36654;45.042;38.994;2023-01-30T09:39:24;100983.00;;;8.70;63.91
50684;BME280;36654;45.042;38.994;2023-01-30T09:47:32;100925.31;;;8.51;62.22
50684;BME280;36654;45.042;38.994;2023-01-30T09:50:22;100962.97;;;8.80;61.19
50684;BME280;36654;45.042;38.994;2023-01-30T09:55:23;100948.91;;;8.82;59.13
50684;BME280;36654;45.042;38.994;2023-01-30T09:57:50;100941.16;;;8.90;58.33
50684;BME280;36654;45.042;38.994;2023-01-30T10:00:36;100939.41;;;8.91;57.91
50684;BME280;36654;45.042;38.994;2023-01-30T10:05:46;100898.44;;;8.70;56.78
50684;BME280;36654;45.042;38.994;2023-01-30T10:26:09;100921.53;;;9.68;51.93
50684;BME280;36654;45.042;38.994;2023-01-30T10:29:04;100916.16;;;9.65;52.75
50684;BME280;36654;45.042;38.994;2023-01-30T10:31:45;100905.78;;;9.78;52.04
50684;BME280;36654;45.042;38.994;2023-01-30T10:34:19;100911.31;;;9.91;51.51
50684;BME280;36654;45.042;38.994;2023-01-30T10:37:09;100902.38;;;9.85;51.49
50684;BME280;36654;45.042;38.994;2023-01-30T10:39:46;100888.09;;;9.74;51.94
50684;BME280;36654;45.042;38.994;2023-01-30T10:42:22;100912.50;;;9.57;52.24
50684;BME280;36654;45.042;38.994;2023-01-30T10:44:50;100864.31;;;9.26;52.84
50684;BME280;36654;45.042;38.994;2023-01-30T10:49:55;100904.50;;;9.54;53.54
50684;BME280;36654;45.042;38.994;2023-01-30T10:52:48;100893.97;;;9.57;53.89
50684;BME280;36654;45.042;38.994;2023-01-30T10:55:37;100896.56;;;9.54;54.16
50684;BME280;36654;45.042;38.994;2023-01-30T10:58:31;100892.94;;;9.49;54.62
50684;BME280;36654;45.042;38.994;2023-01-30T11:01:06;100909.66;;;9.46;54.74
50684;BME280;36654;45.042;38.994;2023-01-30T11:03:44;100913.97;;;9.43;55.08
50684;BME280;36654;45.042;38.994;2023-01-30T11:06:14;100897.22;;;9.42;55.45
50684;BME280;36654;45.042;38.994;2023-01-30T11:08:43;100899.91;;;9.44;55.37
50684;BME280;36654;45.042;38.994;2023-01-30T11:11:30;100914.81;;;9.40;55.84
50684;BME280;36654;45.042;38.994;2023-01-30T11:14:02;100908.69;;;9.43;55.66
50684;BME280;36654;45.042;38.994;2023-01-30T11:16:29;100899.72;;;9.35;56.12
50684;BME280;36654;45.042;38.994;2023-01-30T11:18:55;100897.91;;;9.32;56.49
50684;BME280;36654;45.042;38.994;2023-01-30T11:21:25;100906.69;;;9.29;56.67
50684;BME280;36654;45.042;38.994;2023-01-30T11:23:53;100900.50;;;9.29;55.79
50684;BME280;36654;45.042;38.994;2023-01-30T11:26:23;100898.72;;;9.28;54.78
50684;BME280;36654;45.042;38.994;2023-01-30T11:28:49;100892.59;;;9.31;54.65
50684;BME280;36654;45.042;38.994;2023-01-30T11:31:26;100894.81;;;9.55;54.96
50684;BME280;36654;45.042;38.994;2023-01-30T11:34:05;100898.59;;;9.70;54.82
50684;BME280;36654;45.042;38.994;2023-01-30T11:36:33;100895.25;;;9.81;54.56
50684;BME280;36654;45.042;38.994;2023-01-30T11:39:00;100889.13;;;9.85;54.66
50684;BME280;36654;45.042;38.994;2023-01-30T11:41:27;100885.56;;;9.83;53.82
50684;BME280;36654;45.042;38.994;2023-01-30T11:44:04;100851.91;;;9.76;54.07
50684;BME280;36654;45.042;38.994;2023-01-30T11:46:33;100882.88;;;9.80;54.29
50684;BME280;36654;45.042;38.994;2023-01-30T11:49:09;100859.59;;;9.60;53.81
50684;BME280;36654;45.042;38.994;2023-01-30T11:51:37;100895.19;;;9.78;52.90
50684;BME280;36654;45.042;38.994;2023-01-30T11:54:06;100879.25;;;9.75;52.98
50684;BME280;36654;45.042;38.994;2023-01-30T11:56:41;100880.06;;;9.69;53.20
50684;BME280;36654;45.042;38.994;2023-01-30T11:59:38;100828.47;;;9.45;53.31
50684;BME280;36654;45.042;38.994;2023-01-30T12:02:19;100872.09;;;9.67;53.22
50684;BME280;36654;45.042;38.994;2023-01-30T12:04:48;100863.28;;;9.68;52.64
50684;BME280;36654;45.042;38.994;2023-01-30T12:07:25;100871.28;;;9.71;52.67
50684;BME280;36654;45.042;38.994;2023-01-30T12:09:51;100861.53;;;9.70;52.91
50684;BME280;36654;45.042;38.994;2023-01-30T12:13:28;100861.63;;;9.74;53.05
50684;BME280;36654;45.042;38.994;2023-01-30T12:20:59;100876.84;;;9.88;52.93
50684;BME280;36654;45.042;38.994;2023-01-30T12:34:03;100867.63;;;9.65;52.39
50684;BME280;36654;45.042;38.994;2023-01-30T12:45:25;100883.81;;;9.82;53.10
50684;BME280;36654;45.042;38.994;2023-01-30T12:54:12;100882.00;;;9.81;54.23
50684;BME280;36654;45.042;38.994;2023-01-30T12:56:52;100879.34;;;9.81;54.63
50684;BME280;36654;45.042;38.994;2023-01-30T13:10:29;100888.84;;;9.66;55.45
50684;BME280;36654;45.042;38.994;2023-01-30T13:18:28;100897.13;;;9.36;57.37
50684;BME280;36654;45.042;38.994;2023-01-30T13:21:15;100891.78;;;9.35;57.61
50684;BME280;36654;45.042;38.994;2023-01-30T13:26:33;100892.59;;;9.31;57.76
50684;BME280;36654;45.042;38.994;2023-01-30T13:29:16;100893.22;;;9.17;57.87
50684;BME280;36654;45.042;38.994;2023-01-30T13:31:58;100879.66;;;8.99;58.23
50684;BME280;36654;45.042;38.994;2023-01-30T13:34:34;100846.59;;;8.78;58.53
50684;BME280;36654;45.042;38.994;2023-01-30T13:37:07;100899.72;;;8.91;59.03
50684;BME280;36654;45.042;38.994;2023-01-30T13:40:00;100885.38;;;8.76;59.37
50684;BME280;36654;45.042;38.994;2023-01-30T13:42:32;100905.44;;;8.68;59.62
50684;BME280;36654;45.042;38.994;2023-01-30T13:45:02;100905.31;;;8.62;60.02
50684;BME280;36654;45.042;38.994;2023-01-30T13:55:51;100915.50;;;8.45;61.68
50684;BME280;36654;45.042;38.994;2023-01-30T14:01:09;100918.03;;;8.40;63.10
50684;BME280;36654;45.042;38.994;2023-01-30T14:03:36;100913.53;;;8.36;63.77
50684;BME280;36654;45.042;38.994;2023-01-30T14:06:25;100923.09;;;8.33;64.11
50684;BME280;36654;45.042;38.994;2023-01-30T14:08:53;100897.28;;;8.21;64.12
50684;BME280;36654;45.042;38.994;2023-01-30T14:12:14;100891.94;;;8.16;64.41
50684;BME280;36654;45.042;38.994;2023-01-30T14:14:34;100901.75;;;8.24;64.60
50684;BME280;36654;45.042;38.994;2023-01-30T14:22:25;100905.03;;;8.13;64.69
50684;BME280;36654;45.042;38.994;2023-01-30T14:38:39;100912.56;;;7.96;65.69
50684;BME280;36654;45.042;38.994;2023-01-30T14:51:30;100922.91;;;7.87;66.70
50684;BME280;36654;45.042;38.994;2023-01-30T14:59:39;100926.31;;;7.83;66.98
50684;BME280;36654;45.042;38.994;2023-01-30T15:07:37;100925.28;;;7.78;66.90
50684;BME280;36654;45.042;38.994;2023-01-30T15:13:14;100931.50;;;7.80;66.22
50684;BME280;36654;45.042;38.994;2023-01-30T15:18:30;100934.09;;;7.77;66.10
50684;BME280;36654;45.042;38.994;2023-01-30T15:32:18;100891.31;;;7.24;67.23
50684;BME280;36654;45.042;38.994;2023-01-30T15:37:39;100925.38;;;7.46;67.49
50684;BME280;36654;45.042;38.994;2023-01-30T15:51:27;100933.84;;;7.36;67.75
50684;BME280;36654;45.042;38.994;2023-01-30T15:53:55;100921.53;;;7.35;67.50
50684;BME280;36654;45.042;38.994;2023-01-30T15:56:25;100925.03;;;7.34;67.54
50684;BME280;36654;45.042;38.994;2023-01-30T15:58:52;100917.97;;;7.33;67.61
50684;BME280;36654;45.042;38.994;2023-01-30T16:01:21;100906.06;;;7.16;67.50
50684;BME280;36654;45.042;38.994;2023-01-30T16:03:48;100921.38;;;7.29;67.74
50684;BME280;36654;45.042;38.994;2023-01-30T16:06:34;100921.19;;;7.23;67.88
50684;BME280;36654;45.042;38.994;2023-01-30T16:09:03;100910.56;;;7.20;67.92
50684;BME280;36654;45.042;38.994;2023-01-30T16:11:40;100928.97;;;7.18;68.02
50684;BME280;36654;45.042;38.994;2023-01-30T16:14:14;100908.53;;;7.09;68.37
50684;BME280;36654;45.042;38.994;2023-01-30T16:19:20;100912.09;;;7.11;68.42